Time;durP1;ratioP1;P1;durP2;ratioP2;P2;SDS_P1;SDS_P2;PMS_P1;PMS_P2;Temp;Humidity;BMP_temperature;BMP_pressure;BME280_temperature;BME280_humidity;BME280_pressure;Samples;Min_cycle;Max_cycle;Signal;HPM_P1;HPM_P2
2022/03/28 00:00:42;;;;;;;3.40;0.80;;;-6.20;92.20;-7.20;98143.00;;;;4848587;29;92518;-61
2022/03/28 00:03:10;;;;;;;1.23;0.70;;;-6.20;92.10;-7.10;98133.00;;;;4846208;28;92626;-61
2022/03/28 00:05:37;;;;;;;2.78;0.80;;;-6.20;91.90;-7.20;98131.00;;;;4849449;28;93360;-61
2022/03/28 00:08:04;;;;;;;2.85;0.95;;;-6.20;91.80;-7.20;98134.00;;;;4854815;29;92799;-61
2022/03/28 00:10:30;;;;;;;3.42;0.82;;;-6.30;92.00;-7.20;98135.00;;;;4853673;29;91409;-61
2022/03/28 00:12:56;;;;;;;3.05;0.90;;;-6.30;91.90;-7.30;98125.00;;;;4855931;28;92845;-62
2022/03/28 00:15:22;;;;;;;3.35;1.00;;;-6.30;92.20;-7.30;98132.00;;;;4850257;29;92825;-61
2022/03/28 00:17:48;;;;;;;3.22;1.05;;;-6.40;92.10;-7.40;98137.00;;;;4848361;29;93314;-61
2022/03/28 00:20:15;;;;;;;3.13;1.35;;;-6.40;92.20;-7.40;98140.00;;;;4851100;29;93079;-62
2022/03/28 00:22:42;;;;;;;2.60;0.90;;;-6.50;92.30;-7.40;98128.00;;;;4852154;29;93715;-61
2022/03/28 00:25:11;;;;;;;2.38;1.30;;;-6.50;92.20;-7.50;98136.00;;;;4850354;29;93307;-61
2022/03/28 00:27:38;;;;;;;3.47;1.10;;;-6.50;92.50;-7.50;98140.00;;;;4852346;29;92254;-61
2022/03/28 00:30:07;;;;;;;2.10;1.05;;;-6.60;92.50;-7.60;98158.00;;;;4835617;29;92450;-61
2022/03/28 00:32:33;;;;;;;1.70;0.95;;;-6.60;92.50;-7.60;98146.00;;;;4848943;29;93660;-61
2022/03/28 00:35:00;;;;;;;4.18;1.25;;;-6.60;92.50;-7.60;98143.00;;;;4853202;29;92238;-61
2022/03/28 00:37:27;;;;;;;2.85;1.30;;;-6.60;92.30;-7.60;98137.00;;;;4851898;29;92107;-61
2022/03/28 00:39:53;;;;;;;3.45;1.10;;;-6.70;92.10;-7.60;98140.00;;;;4851465;29;92160;-61
2022/03/28 00:42:19;;;;;;;2.78;1.08;;;-6.70;92.30;-7.60;98133.00;;;;4851377;29;93585;-61
2022/03/28 00:44:45;;;;;;;2.40;1.00;;;-6.70;92.30;-7.60;98141.00;;;;4848425;29;93309;-61
2022/03/28 00:47:11;;;;;;;4.25;0.98;;;-6.70;92.10;-7.60;98139.00;;;;4847640;29;92058;-61
2022/03/28 00:49:38;;;;;;;4.47;0.93;;;-6.60;92.20;-7.60;98138.00;;;;4858339;28;92564;-61
2022/03/28 00:52:05;;;;;;;1.90;0.90;;;-6.70;92.30;-7.60;98140.00;;;;4868735;28;92805;-60
2022/03/28 00:54:32;;;;;;;2.00;0.80;;;-6.70;92.00;-7.60;98122.00;;;;4852454;28;93443;-61
2022/03/28 00:56:58;;;;;;;1.75;0.95;;;-6.70;91.80;-7.60;98124.00;;;;4871314;28;92155;-61
2022/03/28 00:59:24;;;;;;;2.65;0.70;;;-6.70;91.80;-7.60;98130.00;;;;4854961;28;91478;-61
2022/03/28 01:01:50;;;;;;;2.80;0.80;;;-6.70;91.80;-7.60;98126.00;;;;4868403;28;92687;-61
2022/03/28 01:04:17;;;;;;;4.00;1.08;;;-6.70;91.80;-7.70;98119.00;;;;4870043;28;92439;-62
2022/03/28 01:06:43;;;;;;;3.30;1.10;;;-6.70;91.90;-7.70;98119.00;;;;4863044;28;93368;-61
2022/03/28 01:09:10;;;;;;;1.35;0.90;;;-6.80;92.00;-7.80;98110.00;;;;4869077;28;92557;-60
2022/03/28 01:11:37;;;;;;;3.80;1.20;;;-6.80;92.00;-7.80;98124.00;;;;4856135;28;93715;-61
2022/03/28 01:14:03;;;;;;;2.13;1.10;;;-6.80;92.20;-7.90;98125.00;;;;4867523;28;94182;-60
2022/03/28 01:19:19;;;;;;;2.92;0.93;;;-6.90;92.50;-7.80;98119.00;;;;4836590;28;92671;-60
2022/03/28 01:21:45;;;;;;;3.70;1.20;;;-6.90;92.50;-7.80;98120.00;;;;4869981;28;92703;-60
2022/03/28 01:24:11;;;;;;;5.57;1.63;;;-6.90;92.60;-7.90;98110.00;;;;4874241;28;92732;-60
2022/03/28 01:26:38;;;;;;;1.77;1.02;;;-6.90;92.80;-8.00;98118.00;;;;4870785;28;92167;-61
2022/03/28 01:29:05;;;;;;;1.98;1.23;;;-7.00;92.90;-8.00;98108.00;;;;4869773;28;91975;-60
2022/03/28 01:31:31;;;;;;;3.10;1.23;;;-7.00;93.00;-7.90;98128.00;;;;4852982;28;94181;-60
2022/03/28 01:33:57;;;;;;;4.13;1.40;;;-6.90;92.80;-7.90;98131.00;;;;4876304;28;93632;-60
2022/03/28 01:36:30;;;;;;;4.13;1.38;;;-6.90;92.90;-7.90;98116.00;;;;4865470;28;92749;-60
2022/03/28 01:38:56;;;;;;;5.25;1.30;;;-6.90;93.40;-7.90;98112.00;;;;4851735;28;92342;-60
2022/03/28 01:41:22;;;;;;;3.15;1.30;;;-7.00;93.00;-8.00;98113.00;;;;4871291;28;93027;-61
2022/03/28 01:43:48;;;;;;;3.25;1.30;;;-7.00;93.10;-7.90;98113.00;;;;4873773;28;93496;-60
2022/03/28 01:46:14;;;;;;;1.75;1.00;;;-7.00;93.00;-7.90;98108.00;;;;4879137;28;92755;-61
2022/03/28 01:48:40;;;;;;;3.63;1.30;;;-6.90;93.10;-7.90;98103.00;;;;4867175;28;91767;-61
2022/03/28 01:51:07;;;;;;;3.53;1.13;;;-7.00;93.00;-7.90;98105.00;;;;4863964;29;93165;-61
2022/03/28 01:53:33;;;;;;;2.10;1.08;;;-7.00;93.10;-7.90;98088.00;;;;4866828;28;92473;-61
2022/03/28 01:55:59;;;;;;;2.80;1.20;;;-7.00;93.20;-8.00;98083.00;;;;4868641;28;93414;-60
2022/03/28 01:58:26;;;;;;;3.17;1.27;;;-7.00;93.30;-8.00;98090.00;;;;4878940;28;92823;-59
2022/03/28 02:00:52;;;;;;;6.15;1.40;;;-7.00;93.30;-7.90;98073.00;;;;4877281;28;93356;-60
2022/03/28 02:03:18;;;;;;;1.63;1.00;;;-6.90;93.30;-7.90;98077.00;;;;4877368;28;92460;-59
2022/03/28 02:05:44;;;;;;;4.07;1.15;;;-7.00;93.10;-7.80;98096.00;;;;4873661;28;92352;-60
2022/03/28 02:08:10;;;;;;;3.35;1.17;;;-6.90;93.10;-7.80;98082.00;;;;4877232;28;92980;-60
2022/03/28 02:10:36;;;;;;;2.72;1.00;;;-6.90;93.10;-7.80;98097.00;;;;4867898;28;92783;-60
2022/03/28 02:13:04;;;;;;;1.73;1.17;;;-6.90;93.10;-7.80;98095.00;;;;4874783;28;92210;-61
2022/03/28 02:15:30;;;;;;;4.40;1.20;;;-6.90;93.10;-7.80;98104.00;;;;4867688;28;92076;-60
2022/03/28 02:17:59;;;;;;;4.80;1.40;;;-6.90;93.10;-7.80;98115.00;;;;4868274;28;92164;-60
2022/03/28 02:20:25;;;;;;;2.00;1.13;;;-6.90;93.30;-7.90;98109.00;;;;4860162;28;94761;-60
2022/03/28 02:22:51;;;;;;;4.35;1.40;;;-7.00;93.40;-7.90;98105.00;;;;4860400;28;95524;-60
2022/03/28 02:25:18;;;;;;;2.17;1.27;;;-6.90;93.40;-7.90;98099.00;;;;4865432;28;92417;-61
2022/03/28 02:27:44;;;;;;;2.90;1.13;;;-7.00;93.50;-7.90;98094.00;;;;4882516;28;92457;-60
2022/03/28 02:30:14;;;;;;;4.25;1.02;;;-7.00;93.50;-7.90;98102.00;;;;4882103;28;92557;-60
2022/03/28 02:32:41;;;;;;;2.35;1.30;;;-7.00;93.60;-8.00;98099.00;;;;4876262;28;92361;-60
2022/03/28 02:35:08;;;;;;;3.08;1.20;;;-7.00;93.70;-8.00;98096.00;;;;4871318;28;92156;-60
2022/03/28 02:37:35;;;;;;;2.85;1.10;;;-7.00;93.80;-8.00;98095.00;;;;4869384;28;91752;-59
2022/03/28 02:40:01;;;;;;;2.83;1.20;;;-7.00;93.80;-8.00;98080.00;;;;4876202;28;92652;-60
2022/03/28 02:42:29;;;;;;;3.30;1.13;;;-7.00;93.90;-8.00;98086.00;;;;4875603;28;93376;-60
2022/03/28 02:44:56;;;;;;;2.30;1.20;;;-7.00;93.90;-8.00;98090.00;;;;4878874;28;93441;-60
2022/03/28 02:47:23;;;;;;;2.67;1.20;;;-7.10;93.80;-8.00;98070.00;;;;4873680;28;93164;-60
2022/03/28 02:49:50;;;;;;;4.45;1.27;;;-7.10;93.70;-8.00;98075.00;;;;4862957;28;93761;-60
2022/03/28 02:52:16;;;;;;;1.98;1.10;;;-7.10;93.80;-8.10;98067.00;;;;4866221;28;92401;-60
2022/03/28 02:54:43;;;;;;;4.07;1.23;;;-7.10;93.90;-8.10;98063.00;;;;4862455;29;92410;-59
2022/03/28 02:57:09;;;;;;;3.60;1.05;;;-7.10;93.80;-8.10;98069.00;;;;4877824;28;92074;-60
2022/03/28 02:59:35;;;;;;;4.15;1.23;;;-7.20;93.90;-8.10;98068.00;;;;4866439;28;93724;-60
2022/03/28 03:02:02;;;;;;;3.42;1.80;;;-7.20;94.20;-8.10;98058.00;;;;4870017;28;93425;-61
2022/03/28 03:04:31;;;;;;;2.85;1.30;;;-7.20;94.10;-8.10;98060.00;;;;4874894;28;92080;-60
2022/03/28 03:06:58;;;;;;;5.05;1.58;;;-7.20;94.10;-8.10;98056.00;;;;4865047;28;92683;-59
2022/03/28 03:09:25;;;;;;;5.88;1.80;;;-7.20;94.10;-8.20;98053.00;;;;4870760;28;93538;-60
2022/03/28 03:11:51;;;;;;;3.30;1.30;;;-7.20;94.10;-8.20;98048.00;;;;4875371;28;94556;-60
2022/03/28 03:14:17;;;;;;;5.53;1.50;;;-7.20;94.30;-8.10;98049.00;;;;4878667;28;92053;-60
2022/03/28 03:16:44;;;;;;;7.93;1.48;;;-7.20;94.20;-8.10;98042.00;;;;4872984;28;92103;-60
2022/03/28 03:19:10;;;;;;;5.60;1.67;;;-7.20;94.10;-8.10;98040.00;;;;4872369;28;92765;-61
2022/03/28 03:21:36;;;;;;;5.30;1.80;;;-7.20;94.00;-8.10;98038.00;;;;4873922;28;93564;-60
2022/03/28 03:24:05;;;;;;;6.28;1.50;;;-7.20;94.10;-8.00;98030.00;;;;4881583;28;92024;-60
2022/03/28 03:26:32;;;;;;;7.10;1.90;;;-7.20;94.10;-7.60;98031.00;;;;4881253;28;91993;-60
2022/03/28 03:28:58;;;;;;;4.20;1.50;;;-7.00;94.00;-7.10;98026.00;;;;4864703;28;95576;-60
2022/03/28 03:31:25;;;;;;;3.05;1.40;;;-6.70;93.70;-6.90;98029.00;;;;4858864;28;93384;-61
2022/03/28 03:33:52;;;;;;;3.42;1.63;;;-6.50;93.30;-6.70;98018.00;;;;4880333;28;93264;-61
2022/03/28 03:36:18;;;;;;;3.22;1.30;;;-6.40;93.00;-6.60;98025.00;;;;4866208;28;92396;-60
2022/03/28 03:38:45;;;;;;;4.00;1.60;;;-6.30;92.80;-6.70;98021.00;;;;4867918;28;94038;-60
2022/03/28 03:41:11;;;;;;;4.07;1.30;;;-6.30;92.60;-6.90;98017.00;;;;4872245;28;93624;-60
2022/03/28 03:43:37;;;;;;;2.80;1.65;;;-6.40;92.60;-7.00;98018.00;;;;4870277;28;92546;-59
2022/03/28 03:46:03;;;;;;;3.40;1.30;;;-6.40;92.80;-7.20;98015.00;;;;4869854;28;92093;-61
2022/03/28 03:48:29;;;;;;;4.05;1.33;;;-6.50;93.00;-7.30;98018.00;;;;4867898;28;92788;-61
2022/03/28 03:50:56;;;;;;;3.65;1.40;;;-6.60;93.30;-7.30;98006.00;;;;4862385;29;92461;-61
2022/03/28 03:53:22;;;;;;;6.78;1.38;;;-6.50;93.30;-7.20;98005.00;;;;4848657;29;92450;-61
2022/03/28 03:55:48;;;;;;;4.25;1.63;;;-6.50;93.30;-7.20;98010.00;;;;4864387;28;92142;-61
2022/03/28 03:58:15;;;;;;;5.72;1.45;;;-6.50;93.30;-7.20;97996.00;;;;4859224;29;94285;-61
2022/03/28 04:00:41;;;;;;;5.30;1.58;;;-6.50;93.30;-7.20;97995.00;;;;4864880;28;93849;-61
2022/03/28 04:03:07;;;;;;;5.93;2.05;;;-6.50;93.30;-7.00;98005.00;;;;4867135;28;92441;-60
2022/03/28 04:05:37;;;;;;;5.82;1.92;;;-6.40;93.30;-6.90;98024.00;;;;4873321;28;92408;-60
2022/03/28 04:08:07;;;;;;;4.47;1.58;;;-6.30;93.00;-6.70;98002.00;;;;4847453;29;95881;-61
2022/03/28 04:10:34;;;;;;;5.90;2.05;;;-6.20;93.20;-6.60;98001.00;;;;4875150;28;92823;-61
2022/03/28 04:13:02;;;;;;;6.20;2.20;;;-6.20;93.00;-6.50;97998.00;;;;4857362;28;92196;-61
2022/03/28 04:15:28;;;;;;;4.75;1.60;;;-6.10;93.20;-6.50;97999.00;;;;4879635;28;91363;-61
2022/03/28 04:17:54;;;;;;;4.00;1.80;;;-6.10;93.20;-6.50;98007.00;;;;4865997;28;92696;-61
2022/03/28 04:20:21;;;;;;;4.47;1.67;;;-6.10;93.00;-6.50;98009.00;;;;4878574;28;93139;-60
2022/03/28 04:22:47;;;;;;;5.93;1.50;;;-6.00;93.00;-6.70;98008.00;;;;4857258;28;93710;-60
2022/03/28 04:25:14;;;;;;;8.35;1.70;;;-6.10;92.90;-6.70;98007.00;;;;4880258;28;92377;-60
2022/03/28 04:27:41;;;;;;;8.93;1.90;;;-6.10;93.00;-6.80;98000.00;;;;4880112;28;93520;-61
2022/03/28 04:30:10;;;;;;;2.80;1.40;;;-6.10;93.00;-6.80;98000.00;;;;4880265;28;92362;-60
2022/03/28 04:32:37;;;;;;;3.53;1.60;;;-6.20;92.90;-6.80;97998.00;;;;4874724;28;92037;-61
2022/03/28 04:35:06;;;;;;;6.57;1.60;;;-6.10;92.90;-6.80;97998.00;;;;4854691;29;92102;-61
2022/03/28 04:37:38;;;;;;;6.20;1.70;;;-6.10;92.80;-6.80;97991.00;;;;4848403;28;94105;-62
2022/03/28 04:40:07;;;;;;;4.50;1.77;;;-6.10;93.00;-6.70;97990.00;;;;4874372;28;92264;-64
2022/03/28 04:42:34;;;;;;;5.15;1.80;;;-6.10;93.30;-6.70;97992.00;;;;4867566;28;92667;-61
2022/03/28 04:45:01;;;;;;;6.93;2.30;;;-6.00;93.20;-6.60;97992.00;;;;4864578;28;92106;-62
2022/03/28 04:47:29;;;;;;;5.20;1.98;;;-6.00;92.80;-6.60;97992.00;;;;4843730;28;93957;-62
2022/03/28 04:49:56;;;;;;;5.78;1.77;;;-5.90;92.90;-6.60;97983.00;;;;4821132;29;95328;-61
2022/03/28 04:52:23;;;;;;;4.70;1.65;;;-6.00;92.90;-6.60;97979.00;;;;4857986;29;92401;-60
2022/03/28 04:54:49;;;;;;;7.30;1.80;;;-5.90;92.90;-6.50;97980.00;;;;4843155;29;92134;-61
2022/03/28 04:57:15;;;;;;;4.40;1.58;;;-5.80;93.00;-6.40;97980.00;;;;4853517;29;92520;-61
2022/03/28 04:59:42;;;;;;;5.25;1.60;;;-5.80;93.00;-6.40;97969.00;;;;4824125;29;93274;-61
2022/03/28 05:02:08;;;;;;;4.75;1.65;;;-5.80;92.80;-6.40;97967.00;;;;4821502;29;92515;-63
2022/03/28 05:04:35;;;;;;;6.05;1.80;;;-5.80;92.50;-6.20;97964.00;;;;4849582;29;91495;-61
2022/03/28 05:07:01;;;;;;;7.78;2.25;;;-5.60;92.60;-6.10;97954.00;;;;4857643;29;92676;-60
2022/03/28 05:09:28;;;;;;;6.65;1.90;;;-5.50;92.90;-6.00;97942.00;;;;4855026;29;93537;-60
2022/03/28 05:11:54;;;;;;;6.55;1.83;;;-5.40;92.70;-5.90;97946.00;;;;4859426;29;93413;-60
2022/03/28 05:14:22;;;;;;;7.63;2.30;;;-5.30;92.50;-5.70;97933.00;;;;4857632;29;92103;-60
2022/03/28 05:16:51;;;;;;;7.97;1.90;;;-5.10;92.50;-5.60;97925.00;;;;4852598;28;92740;-61
2022/03/28 05:19:17;;;;;;;7.03;1.63;;;-5.10;91.90;-5.60;97923.00;;;;4857127;29;93108;-61
2022/03/28 05:21:44;;;;;;;6.55;1.77;;;-5.00;91.60;-5.50;97920.00;;;;4860037;29;92845;-62
2022/03/28 05:24:10;;;;;;;3.63;1.90;;;-4.90;91.70;-5.40;97911.00;;;;4850271;29;92663;-62
2022/03/28 05:26:36;;;;;;;4.20;2.20;;;-4.80;91.70;-5.30;97905.00;;;;4862302;29;92609;-62
2022/03/28 05:29:02;;;;;;;5.85;2.25;;;-4.70;91.40;-5.20;97900.00;;;;4858503;29;93745;-61
2022/03/28 05:31:28;;;;;;;7.63;2.28;;;-4.60;91.80;-5.10;97900.00;;;;4854071;28;93146;-62
2022/03/28 05:33:55;;;;;;;9.20;2.60;;;-4.50;91.90;-5.10;97894.00;;;;4858888;29;92378;-62
2022/03/28 05:36:21;;;;;;;6.65;2.35;;;-4.50;91.90;-5.00;97883.00;;;;4857503;29;93609;-63
2022/03/28 05:38:48;;;;;;;8.95;1.70;;;-4.40;92.00;-5.00;97874.00;;;;4853917;29;93658;-62
2022/03/28 05:41:14;;;;;;;3.78;1.90;;;-4.30;91.70;-5.00;97869.00;;;;4841872;29;92755;-61
2022/03/28 05:43:40;;;;;;;8.57;1.60;;;-4.30;91.60;-4.90;97856.00;;;;4856490;29;92106;-61
2022/03/28 05:46:06;;;;;;;4.15;1.75;;;-4.20;91.30;-4.90;97851.00;;;;4862366;29;92748;-61
2022/03/28 05:48:33;;;;;;;7.38;1.52;;;-4.20;91.00;-4.90;97862.00;;;;4854034;29;92604;-62
2022/03/28 05:50:59;;;;;;;4.82;1.58;;;-4.30;91.50;-4.90;97859.00;;;;4848808;29;92153;-62
2022/03/28 05:53:25;;;;;;;7.28;2.03;;;-4.30;91.60;-4.70;97858.00;;;;4857721;29;91575;-60
2022/03/28 05:55:52;;;;;;;9.82;2.05;;;-4.10;91.40;-4.70;97838.00;;;;4857714;29;93785;-60
2022/03/28 05:58:18;;;;;;;7.90;2.10;;;-4.10;90.80;-4.70;97841.00;;;;4838580;29;93608;-60
2022/03/28 06:00:44;;;;;;;4.82;1.40;;;-4.00;90.90;-4.70;97837.00;;;;4857078;29;93347;-61
2022/03/28 06:03:11;;;;;;;3.17;1.50;;;-4.10;90.20;-4.70;97833.00;;;;4860345;28;92093;-62
2022/03/28 06:05:37;;;;;;;6.00;1.70;;;-4.00;90.40;-4.70;97831.00;;;;4857917;29;92828;-62
2022/03/28 06:08:05;;;;;;;3.53;1.40;;;-4.10;90.50;-4.60;97830.00;;;;4853835;29;93385;-62
2022/03/28 06:10:34;;;;;;;5.07;1.88;;;-4.00;90.40;-4.60;97820.00;;;;4860680;29;92558;-61
2022/03/28 06:13:01;;;;;;;5.80;1.67;;;-4.00;90.40;-4.50;97821.00;;;;4843647;29;92489;-60
2022/03/28 06:15:27;;;;;;;7.07;2.15;;;-3.90;90.60;-4.50;97807.00;;;;4862988;29;92981;-60
2022/03/28 06:17:55;;;;;;;7.47;1.92;;;-3.90;90.70;-4.40;97811.00;;;;4851685;29;92370;-60
2022/03/28 06:20:21;;;;;;;8.10;2.03;;;-3.80;90.80;-4.30;97790.00;;;;4864978;29;92032;-62
2022/03/28 06:22:47;;;;;;;4.47;1.70;;;-3.70;90.30;-4.30;97780.00;;;;4859577;29;92226;-60
2022/03/28 06:25:13;;;;;;;3.88;1.77;;;-3.70;89.90;-4.30;97768.00;;;;4843418;29;94606;-62
2022/03/28 06:27:43;;;;;;;7.35;1.60;;;-3.60;89.70;-4.20;97760.00;;;;4866404;29;93240;-62
2022/03/28 06:30:11;;;;;;;6.45;1.67;;;-3.60;89.50;-4.20;97750.00;;;;4863454;29;92624;-62
2022/03/28 06:32:41;;;;;;;5.13;1.58;;;-3.60;88.80;-4.00;97750.00;;;;4855446;29;92992;-62
2022/03/28 06:35:09;;;;;;;12.23;2.20;;;-3.40;88.70;-3.90;97734.00;;;;4854539;29;93745;-62
2022/03/28 06:37:36;;;;;;;9.70;1.95;;;-3.20;89.20;-3.70;97735.00;;;;4831744;29;92593;-62
2022/03/28 06:40:05;;;;;;;3.45;1.70;;;-3.10;89.00;-3.60;97725.00;;;;4856937;29;92417;-62
2022/03/28 06:42:33;;;;;;;9.68;2.00;;;-3.10;89.30;-3.50;97742.00;;;;4849479;29;91360;-62
2022/03/28 06:45:00;;;;;;;5.25;2.00;;;-3.00;89.60;-3.50;97718.00;;;;4859196;29;92817;-61
2022/03/28 06:47:26;;;;;;;5.00;1.70;;;-3.10;88.70;-3.60;97725.00;;;;4857772;29;93586;-61
2022/03/28 06:49:53;;;;;;;7.38;1.70;;;-3.20;88.60;-3.60;97717.00;;;;4868413;28;94340;-62
2022/03/28 06:52:19;;;;;;;6.35;1.80;;;-3.20;88.30;-3.60;97703.00;;;;4881441;28;92569;-61
2022/03/28 06:54:45;;;;;;;5.75;1.73;;;-3.20;88.00;-3.60;97694.00;;;;4876421;28;92672;-60
2022/03/28 06:57:12;;;;;;;5.68;1.80;;;-3.00;88.10;-3.40;97697.00;;;;4878504;28;92666;-61
2022/03/28 06:59:39;;;;;;;5.30;1.52;;;-2.90;87.60;-3.30;97692.00;;;;4868188;28;92437;-60
2022/03/28 07:02:05;;;;;;;6.65;1.40;;;-2.90;87.70;-3.30;97688.00;;;;4869753;28;92104;-61
2022/03/28 07:04:32;;;;;;;4.20;2.00;;;-2.90;87.40;-3.30;97675.00;;;;4867354;28;92641;-61
2022/03/28 07:06:59;;;;;;;5.50;1.73;;;-2.80;87.80;-3.30;97665.00;;;;4876962;28;91690;-60
2022/03/28 07:09:26;;;;;;;4.07;1.55;;;-2.90;87.50;-3.20;97662.00;;;;4869148;28;92595;-61
2022/03/28 07:11:52;;;;;;;3.17;1.30;;;-2.80;85.50;-3.30;97644.00;;;;4880296;28;92486;-61
2022/03/28 07:14:19;;;;;;;4.55;1.60;;;-2.90;85.50;-3.30;97643.00;;;;4869702;28;94363;-61
2022/03/28 07:16:46;;;;;;;4.05;1.40;;;-2.90;85.10;-3.30;97644.00;;;;4842316;28;95983;-61
2022/03/28 07:19:13;;;;;;;3.25;1.40;;;-2.90;85.30;-3.40;97620.00;;;;4870237;28;92553;-61
2022/03/28 07:21:40;;;;;;;3.45;1.63;;;-2.90;85.40;-3.40;97610.00;;;;4875114;28;92463;-61
2022/03/28 07:24:06;;;;;;;3.38;1.30;;;-3.00;85.30;-3.30;97612.00;;;;4874097;28;93024;-61
2022/03/28 07:26:32;;;;;;;7.60;1.70;;;-2.90;85.20;-3.30;97606.00;;;;4880831;28;92674;-61
2022/03/28 07:29:02;;;;;;;2.83;1.10;;;-2.90;86.00;-3.20;97606.00;;;;4881584;28;92396;-61
2022/03/28 07:31:29;;;;;;;5.25;1.15;;;-2.80;84.40;-3.10;97587.00;;;;4878303;28;91344;-61
2022/03/28 07:34:29;;;;;;;2.22;1.35;;;-2.70;83.60;-3.00;97580.00;;;;4872199;28;92697;-61
2022/03/28 07:36:43;;;;;;;3.97;1.40;;;-2.50;84.30;-3.00;97573.00;;;;4865373;28;93043;-61
2022/03/28 07:39:10;;;;;;;6.60;1.25;;;-2.50;84.10;-3.00;97560.00;;;;4871710;28;93015;-61
2022/03/28 07:41:36;;;;;;;5.05;1.40;;;-2.50;82.30;-3.10;97549.00;;;;4870534;28;92143;-61
2022/03/28 07:44:06;;;;;;;5.97;1.38;;;-2.60;82.50;-3.20;97537.00;;;;4869931;28;92404;-61
2022/03/28 07:46:34;;;;;;;2.80;1.10;;;-2.70;83.30;-3.20;97538.00;;;;4865205;28;92681;-61
2022/03/28 07:49:00;;;;;;;4.78;1.60;;;-2.80;84.40;-3.10;97531.00;;;;4869265;28;92376;-61
2022/03/28 07:51:27;;;;;;;4.07;1.20;;;-2.70;85.40;-3.20;97513.00;;;;4852614;29;92400;-60
2022/03/28 07:53:54;;;;;;;10.60;1.10;;;-2.70;84.70;-3.10;97505.00;;;;4834979;29;92656;-61
2022/03/28 07:56:22;;;;;;;5.65;1.10;;;-2.60;85.60;-3.00;97520.00;;;;4854698;29;92830;-61
2022/03/28 07:58:48;;;;;;;2.60;1.10;;;-2.50;85.80;-2.90;97512.00;;;;4855177;29;92138;-61
2022/03/28 08:01:14;;;;;;;7.15;1.33;;;-2.40;85.30;-2.90;97518.00;;;;4851935;29;92457;-61
2022/03/28 08:03:40;;;;;;;7.07;1.67;;;-2.40;85.60;-2.80;97492.00;;;;4853458;29;94140;-60
2022/03/28 08:06:07;;;;;;;1.75;1.00;;;-2.40;87.20;-3.00;97486.00;;;;4852966;29;94441;-61
2022/03/28 08:08:35;;;;;;;5.57;1.30;;;-2.60;86.60;-3.00;97485.00;;;;4851876;29;92302;-62
2022/03/28 08:11:01;;;;;;;2.00;1.00;;;-2.60;89.00;-3.00;97470.00;;;;4853815;29;91992;-60
2022/03/28 08:13:27;;;;;;;6.60;1.48;;;-2.60;89.20;-3.10;97463.00;;;;4851983;29;93359;-60
2022/03/28 08:15:54;;;;;;;4.50;1.05;;;-2.60;90.40;-3.00;97459.00;;;;4856713;29;92398;-60
2022/03/28 08:18:20;;;;;;;3.47;1.27;;;-2.60;90.90;-3.10;97457.00;;;;4856305;29;92171;-60
2022/03/28 08:20:46;;;;;;;2.70;1.00;;;-2.70;91.00;-3.10;97426.00;;;;4850382;29;91690;-61
2022/03/28 08:23:14;;;;;;;3.45;1.00;;;-2.60;91.00;-3.00;97434.00;;;;4840443;29;95224;-60
2022/03/28 08:25:40;;;;;;;5.57;1.10;;;-2.60;91.20;-3.10;97401.00;;;;4859255;29;92537;-60
2022/03/28 08:28:06;;;;;;;7.30;1.40;;;-2.70;91.60;-3.10;97390.00;;;;4861289;29;93374;-60
2022/03/28 08:30:34;;;;;;;7.05;1.23;;;-2.60;92.10;-3.10;97401.00;;;;4862021;29;92510;-60
2022/03/28 08:33:01;;;;;;;5.80;1.15;;;-2.70;93.40;-3.30;97398.00;;;;4837926;29;94210;-59
2022/03/28 08:35:27;;;;;;;2.60;0.90;;;-2.90;94.20;-3.30;97391.00;;;;4851933;29;92513;-60
2022/03/28 08:37:54;;;;;;;3.88;1.20;;;-2.90;94.90;-3.40;97378.00;;;;4846422;29;92426;-60
2022/03/28 08:40:20;;;;;;;11.20;1.42;;;-2.90;95.30;-3.60;97380.00;;;;4856401;29;92128;-61
2022/03/28 08:42:48;;;;;;;10.00;1.20;;;-3.10;96.20;-3.60;97343.00;;;;4846962;29;92646;-61
2022/03/28 08:45:14;;;;;;;3.35;1.27;;;-3.10;97.10;-3.60;97359.00;;;;4858571;29;92583;-61
2022/03/28 08:47:46;;;;;;;3.92;1.17;;;-3.10;97.40;-3.50;97335.00;;;;4854145;29;93212;-62
2022/03/28 08:50:14;;;;;;;4.32;1.27;;;-3.10;97.90;-3.50;97318.00;;;;4851490;29;92339;-61
2022/03/28 08:52:42;;;;;;;4.30;0.82;;;-3.10;98.50;-3.50;97330.00;;;;4854883;29;96287;-60
2022/03/28 08:55:10;;;;;;;5.03;1.30;;;-3.10;98.90;-3.60;97310.00;;;;4860424;29;93182;-61
2022/03/28 08:57:38;;;;;;;3.95;1.20;;;-3.10;98.70;-3.70;97293.00;;;;4854274;28;93057;-61
2022/03/28 09:00:10;;;;;;;2.33;1.13;;;-3.20;98.80;-3.60;97286.00;;;;4872064;28;92485;-61
2022/03/28 09:02:50;;;;;;;4.45;1.25;;;-3.20;98.80;-3.60;97269.00;;;;4869599;28;93321;-60
2022/03/28 09:05:19;;;;;;;4.40;1.20;;;-3.10;99.40;-3.60;97270.00;;;;4868477;28;93456;-61
2022/03/28 09:07:46;;;;;;;6.18;1.20;;;-3.10;99.40;-3.60;97264.00;;;;4853735;28;92871;-60
2022/03/28 09:10:17;;;;;;;4.72;1.33;;;-3.10;99.90;-3.90;97253.00;;;;4856453;28;91566;-60
2022/03/28 09:13:04;;;;;;;6.00;1.48;;;-3.40;99.90;-4.00;97255.00;;;;4870907;28;93762;-61
2022/03/28 09:15:55;;;;;;;5.00;1.70;;;-3.50;99.90;-4.00;97242.00;;;;4872809;28;92405;-61
2022/03/28 09:18:34;;;;;;;5.45;1.35;;;-3.50;99.90;-4.00;97240.00;;;;4876269;28;94179;-62
2022/03/28 09:21:13;;;;;;;4.28;1.63;;;-3.50;99.90;-3.90;97221.00;;;;4875066;28;92499;-60
2022/03/28 09:23:46;;;;;;;5.60;1.65;;;-3.50;99.90;-3.80;97229.00;;;;4877522;28;93094;-60
2022/03/28 09:26:24;;;;;;;4.43;1.50;;;-3.40;99.90;-3.60;97239.00;;;;4870650;28;92532;-61
2022/03/28 09:28:54;;;;;;;5.65;1.52;;;-3.20;99.90;-3.60;97212.00;;;;4860864;29;92533;-61
2022/03/28 09:31:39;;;;;;;3.50;1.60;;;-3.20;99.90;-3.70;97211.00;;;;4863855;28;92167;-61
2022/03/28 09:34:18;;;;;;;9.05;1.65;;;-3.20;99.90;-3.60;97193.00;;;;4874493;28;93122;-61
2022/03/28 09:36:58;;;;;;;6.72;1.52;;;-3.20;99.90;-3.50;97187.00;;;;4863808;28;92079;-61
2022/03/28 09:39:29;;;;;;;4.00;1.55;;;-3.10;99.90;-3.50;97192.00;;;;4866821;28;92105;-60
2022/03/28 09:42:07;;;;;;;4.07;1.73;;;-3.00;99.90;-3.50;97189.00;;;;4870089;28;92096;-60
2022/03/28 09:44:42;;;;;;;5.10;2.13;;;-3.10;99.90;-3.60;97180.00;;;;4858678;29;95999;-60
2022/03/28 09:47:11;;;;;;;4.75;1.67;;;-3.20;99.90;-3.50;97162.00;;;;4868635;28;93376;-60
2022/03/28 09:49:41;;;;;;;5.80;1.92;;;-3.10;99.90;-3.50;97154.00;;;;4876495;28;92540;-60
2022/03/28 09:52:14;;;;;;;3.45;1.80;;;-2.90;99.90;-3.40;97141.00;;;;4879453;28;92288;-60
2022/03/28 09:54:50;;;;;;;4.38;2.20;;;-2.90;99.90;-3.40;97138.00;;;;4859608;28;92573;-60
2022/03/28 09:57:27;;;;;;;4.75;2.42;;;-2.90;99.90;-3.40;97131.00;;;;4876020;28;92448;-62
2022/03/28 10:00:10;;;;;;;5.82;1.88;;;-2.90;99.90;-3.40;97140.00;;;;4876211;28;92378;-60
2022/03/28 10:02:36;;;;;;;3.50;1.95;;;-2.90;99.90;-3.50;97131.00;;;;4871774;28;91279;-61
2022/03/28 10:05:03;;;;;;;4.63;1.98;;;-3.10;99.90;-3.50;97127.00;;;;4875047;28;92763;-61
2022/03/28 10:07:32;;;;;;;4.15;2.50;;;-3.10;99.90;-3.50;97109.00;;;;4864608;28;92666;-61
2022/03/28 10:09:59;;;;;;;5.03;2.10;;;-3.00;99.90;-3.50;97104.00;;;;4869935;28;93446;-61
2022/03/28 10:12:26;;;;;;;5.28;2.00;;;-3.00;99.90;-3.60;97105.00;;;;4875974;28;92772;-61
2022/03/28 10:15:00;;;;;;;3.53;1.90;;;-3.10;99.90;-3.50;97098.00;;;;4869271;28;93817;-61
2022/03/28 10:17:29;;;;;;;4.70;1.90;;;-2.90;99.90;-3.50;97087.00;;;;4868151;28;93469;-61
2022/03/28 10:19:56;;;;;;;5.20;1.90;;;-3.10;99.90;-3.70;97078.00;;;;4869998;28;92577;-61
2022/03/28 10:22:29;;;;;;;4.82;2.10;;;-3.20;99.90;-3.70;97068.00;;;;4856188;28;92507;-60
2022/03/28 10:25:02;;;;;;;5.05;2.00;;;-3.30;99.90;-3.70;97052.00;;;;4862114;28;93620;-61
2022/03/28 10:27:32;;;;;;;3.97;1.65;;;-3.10;99.90;-3.70;97068.00;;;;4881838;28;92172;-61
2022/03/28 10:30:16;;;;;;;3.75;1.80;;;-3.10;99.90;-3.50;97066.00;;;;4849728;28;92580;-61
2022/03/28 10:32:42;;;;;;;7.45;2.10;;;-3.00;99.90;-3.50;97042.00;;;;4877005;28;91984;-60
2022/03/28 10:35:09;;;;;;;6.78;1.80;;;-3.00;99.90;-3.60;97053.00;;;;4859156;29;93683;-61
2022/03/28 10:37:49;;;;;;;12.05;2.40;;;-3.10;99.90;-3.60;97015.00;;;;4869901;28;92353;-63
2022/03/28 10:40:32;;;;;;;4.40;1.85;;;-3.10;99.90;-3.40;97024.00;;;;4871211;28;92648;-60
2022/03/28 10:43:13;;;;;;;3.35;1.70;;;-2.90;99.90;-3.30;97020.00;;;;4854446;29;92293;-60
2022/03/28 10:45:42;;;;;;;4.23;2.00;;;-2.70;99.90;-3.20;97001.00;;;;4880490;28;92103;-61
2022/03/28 10:48:09;;;;;;;5.10;1.80;;;-2.70;99.90;-3.20;96991.00;;;;4874510;28;92357;-61
2022/03/28 10:50:43;;;;;;;6.00;2.30;;;-2.70;99.90;-3.20;97003.00;;;;4863174;28;92101;-61
2022/03/28 10:53:20;;;;;;;5.43;1.95;;;-2.70;99.90;-3.10;96988.00;;;;4866095;28;91654;-61
2022/03/28 10:55:49;;;;;;;2.45;1.80;;;-2.70;99.90;-3.00;96969.00;;;;4865248;28;92885;-61
2022/03/28 10:58:20;;;;;;;4.65;1.90;;;-2.50;99.90;-3.00;96963.00;;;;4867627;28;92194;-61
2022/03/28 11:01:07;;;;;;;4.82;1.95;;;-2.50;99.90;-3.10;96971.00;;;;4863470;28;92926;-61